This is the latest recevied weather packets stored in our database for station/object IT9RID. If no packets are shown the sender has not sent any weather packets the latest 1 day(s).
| Time | Temp. | Humidity | Pressure | Rain* | Wind** | Luminosity | Snow |
|---|---|---|---|---|---|---|---|
| 1836274494 | 19.44° C | 66% | 1022 hPa | 0 mm | 0 m/s | - | - |
| 1836274344 | 19.44° C | 67% | 1022 hPa | 0 mm | 0 m/s | - | - |
| 1836273894 | 19.44° C | 66% | 1022.1 hPa | 0 mm | 0 m/s | - | - |
| 1778048679 | 21.11° C | 58% | 1014.3 hPa | 0 mm | 0 m/s | - | - |
| 1778048079 | 20.56° C | 67% | 1014.2 hPa | 0 mm | 0 m/s | - | - |
| 1778047478 | 19.44° C | 69% | 1014.2 hPa | 0 mm | 0 m/s | - | - |
| 1778046878 | 18.89° C | 69% | 1014 hPa | 0 mm | 0 m/s | - | - |
| 1778046278 | 18.33° C | 67% | 1013.9 hPa | 0 mm | 0 m/s | - | - |
| 1778045678 | 17.22° C | 66% | 1013.8 hPa | 0 mm | 0 m/s | - | - |
| 1778045078 | 16.67° C | 67% | 1013.4 hPa | 0 mm | 0 m/s | - | - |
| 1778044478 | 17.22° C | 68% | 1013.1 hPa | 0 mm | 0 m/s | - | - |
| 1778043877 | 17.22° C | 66% | 1013.1 hPa | 0 mm | 0 m/s | - | - |
| 1778043277 | 16.67° C | 64% | 1013.1 hPa | 0 mm | 0 m/s | - | - |
| 1778042677 | 16.67° C | 65% | 1012.9 hPa | 0 mm | 0 m/s | - | - |
| 1778042077 | 17.22° C | 65% | 1012.8 hPa | 0 mm | 0 m/s | - | - |
| 1778041477 | 17.22° C | 64% | 1012.7 hPa | 0 mm | 0 m/s | - | - |
| 1778040876 | 17.22° C | 62% | 1012.8 hPa | 0 mm | 0 m/s | - | - |
| 1778040276 | 17.22° C | 60% | 1012.6 hPa | 0 mm | 0 m/s | - | - |
| 1778039676 | 17.78° C | 59% | 1012.4 hPa | 0 mm | 0 m/s | - | - |
| 1778039076 | 18.33° C | 60% | 1012.3 hPa | 0 mm | 0 m/s | - | - |
| 1778038476 | 17.78° C | 66% | 1012.5 hPa | 0 mm | 0.45 m/s, 233° | - | - |
| 1778037876 | 17.78° C | 77% | 1012.5 hPa | 0 mm | 0 m/s | - | - |
| 1778037276 | 17.78° C | 75% | 1012.6 hPa | 0 mm | 0 m/s | - | - |
| 1778036676 | 18.89° C | 68% | 1012.5 hPa | 0 mm | 0 m/s | - | - |
| 1778036076 | 19.44° C | 44% | 1012.4 hPa | 0 mm | 2.24 m/s, 234° | - | - |
* Rain latest hour (hover to see other rain measurements)
** Current wind speed in m/s (hover to see current wind gust speed)